createdAt,value
2022-09-22T00:02:13.122Z,5.90
2022-09-22T00:04:42.997Z,5.80
2022-09-22T00:07:34.334Z,5.80
2022-09-22T00:10:04.048Z,5.70
2022-09-22T00:12:32.925Z,5.60
2022-09-22T00:15:14.950Z,5.60
2022-09-22T00:17:43.765Z,5.60
2022-09-22T00:20:14.110Z,5.80
2022-09-22T00:22:44.497Z,5.80
2022-09-22T00:25:13.193Z,5.90
2022-09-22T00:27:41.967Z,5.90
2022-09-22T00:30:11.894Z,5.80
2022-09-22T00:32:40.741Z,5.60
2022-09-22T00:35:10.229Z,5.50
2022-09-22T00:37:38.850Z,5.40
2022-09-22T00:40:10.657Z,5.30
2022-09-22T00:42:39.727Z,5.50
2022-09-22T00:45:11.185Z,5.50
2022-09-22T00:47:42.902Z,5.50
2022-09-22T00:50:16.002Z,5.50
2022-09-22T00:52:49.229Z,5.40
2022-09-22T00:55:29.127Z,5.30
2022-09-22T00:57:58.989Z,5.20
2022-09-22T01:00:27.699Z,5.20
2022-09-22T01:03:00.709Z,5.20
2022-09-22T01:05:30.845Z,5.20
2022-09-22T01:07:59.418Z,5.10
2022-09-22T01:10:29.602Z,5.00
2022-09-22T01:13:19.462Z,5.00
2022-09-22T01:15:56.839Z,4.90
2022-09-22T01:18:38.453Z,4.90
2022-09-22T01:41:45.720Z,4.70
2022-09-22T01:44:19.386Z,4.70
2022-09-22T01:46:56.130Z,4.70
2022-09-22T01:49:31.489Z,4.70
2022-09-22T01:52:03.182Z,4.60
2022-09-22T01:54:41.683Z,4.60
2022-09-22T01:57:19.714Z,4.50
2022-09-22T01:59:57.447Z,4.60
2022-09-22T02:02:32.890Z,4.60
2022-09-22T02:05:06.845Z,4.50
2022-09-22T02:07:40.356Z,4.40
2022-09-22T02:10:13.519Z,4.50
2022-09-22T02:12:44.724Z,4.50
2022-09-22T02:15:28.225Z,4.50
2022-09-22T02:18:02.138Z,4.50
2022-09-22T02:20:31.161Z,4.40
2022-09-22T02:23:01.154Z,4.30
2022-09-22T02:25:37.761Z,4.30
2022-09-22T02:28:19.722Z,4.30
2022-09-22T02:31:18.561Z,4.30
2022-09-22T02:33:46.517Z,4.20
2022-09-22T02:36:38.031Z,4.10
2022-09-22T02:39:11.190Z,4.20
2022-09-22T02:41:59.242Z,4.20
2022-09-22T02:44:39.264Z,4.10
2022-09-22T02:47:14.298Z,4.00
2022-09-22T02:49:48.632Z,4.00
2022-09-22T02:52:21.911Z,3.90
2022-09-22T02:54:51.042Z,4.00
2022-09-22T02:57:20.690Z,3.90
2022-09-22T02:59:51.969Z,4.00
2022-09-22T03:02:21.485Z,4.00
2022-09-22T03:04:52.125Z,4.00
2022-09-22T03:07:22.247Z,4.00
2022-09-22T03:09:52.045Z,4.00
2022-09-22T03:12:22.889Z,4.00
2022-09-22T03:14:57.427Z,3.90
2022-09-22T03:17:26.675Z,3.90
2022-09-22T03:20:01.653Z,3.80
2022-09-22T03:22:34.583Z,3.80
2022-09-22T03:25:07.742Z,3.80
2022-09-22T03:27:36.916Z,3.90
2022-09-22T03:30:10.196Z,3.90
2022-09-22T03:32:48.376Z,3.80
2022-09-22T03:35:18.457Z,3.70
2022-09-22T03:37:52.137Z,3.70
2022-09-22T03:40:22.814Z,3.60
2022-09-22T03:42:52.685Z,3.70
2022-09-22T03:45:23.217Z,3.70
2022-09-22T03:48:02.572Z,3.80
2022-09-22T03:50:32.019Z,3.70
2022-09-22T03:53:01.742Z,3.60
2022-09-22T03:55:31.077Z,3.70
2022-09-22T03:58:00.457Z,3.80
2022-09-22T04:00:33.326Z,3.70
2022-09-22T04:03:02.547Z,3.70
2022-09-22T04:05:32.222Z,3.70
2022-09-22T04:08:01.556Z,3.60
2022-09-22T04:10:30.922Z,3.50
2022-09-22T04:12:59.858Z,3.50
2022-09-22T04:15:31.804Z,3.50
2022-09-22T04:18:01.140Z,3.40
2022-09-22T04:20:33.308Z,3.50
2022-09-22T04:23:05.163Z,3.40
2022-09-22T04:25:34.219Z,3.40
2022-09-22T04:28:07.747Z,3.40
2022-09-22T04:30:44.527Z,3.30
2022-09-22T04:33:16.695Z,3.30
2022-09-22T04:35:48.133Z,3.40
2022-09-22T04:38:17.298Z,3.30
2022-09-22T04:40:49.881Z,3.30
2022-09-22T04:43:22.472Z,3.30
2022-09-22T04:45:56.296Z,3.30
2022-09-22T04:48:26.785Z,3.30
2022-09-22T04:50:56.411Z,3.30
2022-09-22T04:53:25.938Z,3.20
2022-09-22T04:56:02.374Z,3.10
2022-09-22T04:58:39.894Z,3.20
2022-09-22T05:01:16.170Z,3.20
2022-09-22T05:03:48.255Z,3.20
2022-09-22T05:06:17.564Z,3.40
2022-09-22T05:08:46.091Z,3.30
2022-09-22T05:11:14.986Z,3.20
2022-09-22T05:13:43.725Z,3.20
2022-09-22T05:16:14.038Z,3.10
2022-09-22T05:18:42.705Z,3.00
2022-09-22T05:21:11.401Z,3.10
2022-09-22T05:23:40.869Z,3.20
2022-09-22T05:26:09.900Z,3.10
2022-09-22T05:28:39.428Z,3.10
2022-09-22T05:31:08.378Z,3.10
2022-09-22T05:33:38.654Z,3.20
2022-09-22T05:36:07.930Z,3.20
2022-09-22T05:38:36.528Z,3.20
2022-09-22T05:41:05.250Z,3.20
2022-09-22T05:43:34.542Z,3.20
2022-09-22T05:46:04.645Z,3.30
2022-09-22T05:48:37.894Z,3.30
2022-09-22T05:51:06.818Z,3.30
2022-09-22T05:53:35.465Z,3.30
2022-09-22T05:56:04.378Z,3.20
2022-09-22T05:58:33.969Z,3.20
2022-09-22T06:01:04.553Z,3.30
2022-09-22T06:03:33.738Z,3.40
2022-09-22T06:06:04.302Z,3.50
2022-09-22T06:08:33.447Z,3.60
2022-09-22T06:11:02.282Z,3.80
2022-09-22T06:13:31.433Z,3.90
2022-09-22T06:16:02.517Z,4.20
2022-09-22T06:18:31.750Z,4.30
2022-09-22T06:21:00.438Z,4.40
2022-09-22T06:23:32.206Z,4.50
2022-09-22T06:26:01.334Z,4.70
2022-09-22T06:28:29.948Z,4.70
2022-09-22T06:31:00.694Z,4.80
2022-09-22T06:33:29.651Z,4.90
2022-09-22T06:35:58.573Z,4.90
2022-09-22T06:38:27.173Z,5.10
2022-09-22T06:41:03.147Z,5.30
2022-09-22T06:43:33.169Z,5.60
2022-09-22T06:46:03.960Z,5.90
2022-09-22T06:48:32.654Z,6.00
2022-09-22T06:51:01.167Z,6.20
2022-09-22T06:53:29.612Z,6.30
2022-09-22T06:56:00.521Z,6.50
2022-09-22T06:58:42.420Z,6.60
2022-09-22T07:01:19.622Z,6.70
2022-09-22T07:03:48.524Z,6.90
2022-09-22T07:06:20.482Z,7.00
2022-09-22T07:08:50.384Z,7.10
2022-09-22T07:11:23.935Z,7.30
2022-09-22T07:13:55.178Z,7.50
2022-09-22T07:16:26.089Z,7.70
2022-09-22T07:18:56.200Z,7.80
2022-09-22T07:21:28.696Z,8.00
2022-09-22T07:23:59.425Z,8.10
2022-09-22T07:26:32.726Z,8.30
2022-09-22T07:29:16.784Z,8.50
2022-09-22T07:31:52.043Z,8.60
2022-09-22T07:34:21.346Z,8.80
2022-09-22T07:36:52.716Z,8.90
2022-09-22T07:39:24.249Z,9.10
2022-09-22T07:41:54.045Z,9.30
2022-09-22T07:44:44.512Z,9.50
2022-09-22T07:47:13.496Z,9.70
2022-09-22T07:49:43.340Z,10.00
2022-09-22T07:52:14.569Z,10.20
2022-09-22T07:54:43.873Z,10.40
2022-09-22T07:57:13.876Z,10.50
2022-09-22T07:59:44.267Z,10.80
2022-09-22T08:02:13.088Z,11.00
2022-09-22T08:04:42.040Z,11.10
2022-09-22T08:07:10.724Z,11.30
2022-09-22T08:09:39.519Z,11.50
2022-09-22T08:12:10.289Z,11.70
2022-09-22T08:14:39.067Z,11.80
2022-09-22T08:17:12.470Z,12.10
2022-09-22T08:19:41.827Z,12.30
2022-09-22T08:22:13.210Z,12.40
2022-09-22T08:24:45.977Z,12.70
2022-09-22T08:27:14.874Z,12.80
2022-09-22T08:29:44.389Z,13.00
2022-09-22T08:32:17.849Z,13.20
2022-09-22T08:34:49.517Z,13.20
2022-09-22T08:37:18.551Z,13.30
2022-09-22T08:39:47.735Z,13.40
2022-09-22T08:42:21.045Z,13.50
2022-09-22T08:44:58.721Z,13.60
2022-09-22T08:47:51.996Z,13.80
2022-09-22T08:50:51.919Z,14.00
2022-09-22T08:53:23.648Z,14.10
2022-09-22T08:56:03.385Z,14.30
2022-09-22T08:58:47.448Z,14.30
2022-09-22T09:01:41.148Z,14.30
2022-09-22T09:04:43.237Z,14.40
2022-09-22T09:07:18.264Z,14.40
2022-09-22T09:10:00.315Z,14.50
2022-09-22T09:12:41.371Z,14.70
2022-09-22T09:15:39.646Z,14.80
2022-09-22T09:18:15.954Z,14.80
2022-09-22T09:20:48.447Z,14.90
2022-09-22T09:23:19.660Z,15.00
2022-09-22T09:25:52.536Z,15.10
2022-09-22T09:28:27.726Z,15.20
2022-09-22T09:31:05.185Z,15.40
2022-09-22T09:33:44.889Z,15.40
2022-09-22T09:36:20.798Z,15.50
2022-09-22T09:38:53.895Z,15.60
2022-09-22T09:41:26.558Z,15.80
2022-09-22T09:43:56.644Z,16.00
2022-09-22T09:46:37.063Z,16.20
2022-09-22T09:49:11.958Z,16.30
2022-09-22T09:51:45.669Z,16.30
2022-09-22T09:54:17.695Z,16.40
2022-09-22T09:57:27.707Z,16.50
2022-09-22T10:00:33.624Z,16.50
2022-09-22T10:03:14.399Z,16.70
2022-09-22T10:05:45.233Z,16.90
2022-09-22T10:08:21.699Z,17.20
2022-09-22T10:10:51.193Z,17.40
2022-09-22T10:13:33.055Z,17.60
2022-09-22T10:16:08.748Z,18.20
2022-09-22T10:18:40.953Z,18.70
2022-09-22T10:21:17.383Z,19.50
2022-09-22T10:23:49.742Z,20.30
2022-09-22T10:26:22.461Z,20.70
2022-09-22T10:29:18.904Z,21.70
2022-09-22T10:32:13.942Z,22.50
2022-09-22T10:37:18.861Z,23.00
2022-09-22T10:39:52.413Z,23.60
2022-09-22T10:42:27.997Z,23.90
2022-09-22T10:45:02.959Z,23.80
2022-09-22T10:47:37.353Z,23.90
2022-09-22T10:50:48.359Z,24.30
2022-09-22T10:53:38.131Z,24.10
2022-09-22T10:56:20.876Z,24.70
2022-09-22T10:59:33.143Z,24.70
2022-09-22T11:02:35.543Z,25.40
2022-09-22T11:05:45.927Z,26.10
2022-09-22T11:08:39.601Z,26.60
2022-09-22T11:11:39.503Z,26.30
2022-09-22T11:14:23.290Z,25.80
2022-09-22T11:17:21.398Z,25.00
2022-09-22T11:20:07.306Z,25.40
2022-09-22T11:23:08.469Z,25.40
2022-09-22T11:25:51.252Z,25.60
2022-09-22T11:28:43.836Z,26.20
2022-09-22T11:31:21.330Z,26.90
2022-09-22T11:34:06.580Z,27.20
2022-09-22T11:36:50.718Z,26.90
2022-09-22T11:39:34.164Z,26.60
2022-09-22T11:42:13.995Z,27.30
2022-09-22T11:44:56.102Z,27.70
2022-09-22T11:47:46.580Z,28.00
2022-09-22T11:50:31.086Z,27.40
2022-09-22T11:53:21.176Z,27.30
2022-09-22T11:56:03.184Z,26.30
2022-09-22T11:58:34.645Z,27.00
2022-09-22T12:01:13.449Z,27.60
2022-09-22T12:03:46.585Z,27.80
2022-09-22T12:06:19.089Z,28.20
2022-09-22T12:11:26.391Z,28.20
2022-09-22T12:13:56.009Z,28.90
2022-09-22T12:16:31.898Z,29.20
2022-09-22T12:19:06.446Z,28.90
2022-09-22T12:21:48.355Z,29.20
2022-09-22T12:24:17.169Z,29.20
2022-09-22T12:26:47.918Z,28.80
2022-09-22T12:29:29.105Z,29.10
2022-09-22T12:32:00.827Z,29.80
2022-09-22T12:34:33.275Z,29.50
2022-09-22T12:37:19.800Z,28.70
2022-09-22T12:39:49.903Z,28.10
2022-09-22T12:42:23.630Z,28.00
2022-09-22T12:44:56.025Z,27.80
2022-09-22T12:47:33.652Z,28.00
2022-09-22T12:50:07.094Z,28.80
2022-09-22T12:52:54.623Z,29.50
2022-09-22T12:55:38.535Z,29.90
2022-09-22T12:58:41.567Z,29.80
2022-09-22T13:01:33.854Z,29.50
2022-09-22T13:04:16.088Z,29.40
2022-09-22T13:06:56.789Z,29.40
2022-09-22T13:09:30.225Z,29.30
2022-09-22T13:12:28.498Z,29.80
2022-09-22T13:15:11.358Z,30.20
2022-09-22T13:17:44.676Z,30.30
2022-09-22T13:20:26.886Z,30.80
2022-09-22T13:22:56.740Z,31.10
2022-09-22T13:25:28.597Z,30.80
2022-09-22T13:28:21.913Z,30.60
2022-09-22T13:31:03.520Z,30.20
2022-09-22T13:33:37.205Z,30.20
2022-09-22T13:36:11.322Z,30.10
2022-09-22T13:38:42.660Z,30.60
2022-09-22T13:41:16.104Z,30.70
2022-09-22T13:43:48.492Z,29.90
2022-09-22T13:46:23.466Z,29.80
2022-09-22T13:48:55.679Z,30.60
2022-09-22T13:51:28.027Z,31.20
2022-09-22T13:53:58.915Z,31.70
2022-09-22T13:56:28.313Z,31.40
2022-09-22T13:59:04.670Z,31.00
2022-09-22T14:01:34.504Z,30.50
2022-09-22T14:04:05.279Z,30.20
2022-09-22T14:06:37.047Z,30.30
2022-09-22T14:09:09.364Z,30.60
2022-09-22T14:11:46.766Z,30.40
2022-09-22T14:14:25.254Z,31.00
2022-09-22T14:16:57.640Z,31.00
2022-09-22T14:19:39.187Z,31.60
2022-09-22T14:22:33.112Z,31.60
2022-09-22T14:25:08.055Z,31.50
2022-09-22T14:27:45.579Z,31.20
2022-09-22T14:30:18.218Z,30.70
2022-09-22T14:32:52.103Z,31.30
2022-09-22T14:35:28.340Z,31.40
2022-09-22T14:38:12.551Z,32.00
2022-09-22T14:40:52.891Z,32.00
2022-09-22T14:43:27.811Z,32.10
2022-09-22T14:46:06.069Z,32.50
2022-09-22T14:48:38.310Z,32.50
2022-09-22T14:51:09.127Z,32.80
2022-09-22T14:53:44.883Z,32.60
2022-09-22T14:56:16.819Z,32.50
2022-09-22T14:58:52.688Z,32.10
2022-09-22T15:01:43.738Z,32.50
2022-09-22T15:04:18.858Z,32.80
2022-09-22T15:06:51.071Z,32.40
2022-09-22T15:09:26.484Z,31.40
2022-09-22T15:11:57.170Z,30.90
2022-09-22T15:14:41.850Z,31.20
2022-09-22T15:17:53.762Z,31.80
2022-09-22T15:20:22.942Z,32.00
2022-09-22T15:22:52.076Z,32.10
2022-09-22T15:25:23.080Z,32.00
2022-09-22T15:27:53.590Z,30.20
2022-09-22T15:30:23.964Z,29.60
2022-09-22T15:32:52.800Z,30.00
2022-09-22T15:35:23.270Z,30.60
2022-09-22T15:37:53.083Z,30.90
2022-09-22T15:40:25.732Z,30.90
2022-09-22T15:43:12.162Z,30.60
2022-09-22T15:45:48.168Z,30.80
2022-09-22T15:48:24.827Z,30.40
2022-09-22T15:50:54.814Z,30.20
2022-09-22T15:53:24.599Z,29.70
2022-09-22T15:55:56.088Z,29.40
2022-09-22T15:58:25.117Z,28.80
2022-09-22T16:00:54.459Z,28.90
2022-09-22T16:03:27.801Z,29.00
2022-09-22T16:06:00.339Z,28.40
2022-09-22T16:08:31.738Z,27.50
2022-09-22T16:11:03.714Z,28.10
2022-09-22T16:13:33.573Z,28.20
2022-09-22T16:16:03.459Z,28.40
2022-09-22T16:18:35.845Z,28.30
2022-09-22T16:21:09.000Z,28.60
2022-09-22T16:23:38.664Z,28.60
2022-09-22T16:26:08.938Z,28.50
2022-09-22T16:28:42.636Z,27.60
2022-09-22T16:31:20.317Z,26.30
2022-09-22T16:33:55.031Z,25.30
2022-09-22T16:36:23.988Z,25.30
2022-09-22T16:38:53.012Z,25.60
2022-09-22T16:41:25.350Z,25.40
2022-09-22T16:43:54.812Z,25.30
2022-09-22T16:46:30.840Z,25.00
2022-09-22T16:49:04.288Z,24.40
2022-09-22T16:51:35.794Z,23.60
2022-09-22T16:54:08.208Z,22.90
2022-09-22T16:56:43.488Z,22.60
2022-09-22T16:59:15.326Z,22.60
2022-09-22T17:01:45.809Z,22.60
2022-09-22T17:04:17.524Z,22.30
2022-09-22T17:06:46.697Z,21.70
2022-09-22T17:09:16.842Z,21.30
2022-09-22T17:11:49.281Z,20.80
2022-09-22T17:14:21.800Z,20.30
2022-09-22T17:16:52.418Z,19.80
2022-09-22T17:19:22.880Z,19.20
2022-09-22T17:21:55.636Z,18.70
2022-09-22T17:24:25.344Z,18.50
2022-09-22T17:26:57.519Z,18.30
2022-09-22T17:29:28.252Z,17.90
2022-09-22T17:31:59.704Z,17.60
2022-09-22T17:34:30.348Z,17.10
2022-09-22T17:36:59.768Z,16.70
2022-09-22T17:39:30.529Z,16.30
2022-09-22T17:42:05.082Z,16.00
2022-09-22T17:44:38.473Z,15.90
2022-09-22T17:47:24.358Z,15.50
2022-09-22T17:50:09.124Z,15.20
2022-09-22T17:52:55.273Z,15.00
2022-09-22T17:56:34.515Z,14.80
2022-09-22T18:52:01.590Z,11.70
2022-09-22T18:54:31.634Z,11.60
2022-09-22T18:57:01.388Z,11.60
2022-09-22T18:59:30.289Z,11.70
2022-09-22T19:01:59.063Z,11.70
2022-09-22T19:04:28.224Z,11.60
2022-09-22T19:07:18.479Z,11.40
2022-09-22T19:09:49.627Z,11.30
2022-09-22T19:12:18.961Z,11.00
2022-09-22T19:14:48.410Z,10.90
2022-09-22T19:17:17.536Z,10.70
2022-09-22T19:19:49.998Z,10.50
2022-09-22T19:22:18.771Z,10.40
2022-09-22T19:24:49.119Z,10.30
2022-09-22T19:27:19.219Z,10.20
2022-09-22T19:29:48.015Z,10.10
2022-09-22T19:32:16.736Z,10.10
2022-09-22T19:34:46.250Z,10.00
2022-09-22T19:37:15.593Z,9.90
2022-09-22T19:39:44.323Z,9.90
2022-09-22T19:42:18.581Z,9.90
2022-09-22T19:44:48.020Z,9.90
2022-09-22T19:47:16.739Z,9.80
2022-09-22T19:49:45.338Z,9.70
2022-09-22T19:52:14.164Z,9.70
2022-09-22T19:54:46.604Z,9.70
2022-09-22T20:01:44.396Z,9.60
2022-09-22T20:04:16.084Z,9.50
2022-09-22T20:06:45.156Z,9.50
2022-09-22T20:09:13.972Z,9.40
2022-09-22T20:11:45.397Z,9.40
2022-09-22T20:14:25.569Z,9.20
2022-09-22T20:16:57.074Z,9.20
2022-09-22T20:19:27.276Z,9.10
2022-09-22T20:22:18.437Z,9.00
2022-09-22T20:24:54.254Z,8.90
2022-09-22T20:27:25.650Z,8.90
2022-09-22T20:29:57.438Z,8.90
2022-09-22T20:32:29.404Z,8.90
2022-09-22T20:34:58.244Z,8.90
2022-09-22T20:37:27.032Z,8.80
2022-09-22T20:39:59.867Z,8.80
2022-09-22T20:42:28.954Z,8.70
2022-09-22T20:44:58.379Z,8.60
2022-09-22T20:47:28.825Z,8.80
2022-09-22T20:49:59.375Z,8.80
2022-09-22T20:52:27.891Z,8.60
2022-09-22T20:54:56.542Z,8.60
2022-09-22T20:57:29.062Z,8.60
2022-09-22T20:59:57.867Z,8.60
2022-09-22T21:02:28.349Z,8.50
2022-09-22T21:04:57.348Z,8.40
2022-09-22T21:07:26.166Z,8.30
2022-09-22T21:10:12.205Z,8.30
2022-09-22T21:12:40.913Z,8.20
2022-09-22T21:15:10.437Z,8.30
2022-09-22T21:17:44.020Z,8.20
2022-09-22T21:20:13.022Z,8.20
2022-09-22T21:22:43.026Z,8.10
2022-09-22T21:25:11.862Z,8.10
2022-09-22T21:27:40.397Z,8.10
2022-09-22T21:30:13.337Z,8.00
2022-09-22T21:32:43.916Z,8.10
2022-09-22T21:35:16.966Z,8.00
2022-09-22T21:37:46.226Z,8.00
2022-09-22T21:40:15.632Z,7.90
2022-09-22T21:42:45.235Z,7.90
2022-09-22T21:45:14.040Z,7.90
2022-09-22T21:47:44.648Z,8.10
2022-09-22T21:50:13.663Z,8.10
2022-09-22T21:52:43.244Z,8.00
2022-09-22T21:55:12.264Z,7.90
2022-09-22T21:57:41.572Z,7.90
2022-09-22T22:00:11.179Z,7.80
2022-09-22T22:03:01.181Z,7.90
2022-09-22T22:05:31.369Z,7.90
2022-09-22T22:08:00.782Z,8.00
2022-09-22T22:10:33.368Z,8.00
2022-09-22T22:13:02.439Z,7.90
2022-09-22T22:15:31.571Z,7.90
2022-09-22T22:18:02.159Z,8.00
2022-09-22T22:20:31.225Z,8.00
2022-09-22T22:23:00.213Z,8.10
2022-09-22T22:25:29.368Z,8.20
2022-09-22T22:27:58.403Z,8.20
2022-09-22T22:30:27.768Z,8.30
2022-09-22T22:32:57.016Z,8.30
2022-09-22T22:35:28.072Z,8.40
2022-09-22T22:37:57.579Z,8.40
2022-09-22T22:40:27.140Z,8.50
2022-09-22T22:42:56.564Z,8.50
2022-09-22T22:45:26.260Z,8.60
2022-09-22T22:47:55.686Z,8.60
2022-09-22T22:50:26.374Z,8.70
2022-09-22T22:52:57.842Z,8.80
2022-09-22T22:55:28.088Z,8.90
2022-09-22T22:57:57.530Z,8.90
2022-09-22T23:00:27.090Z,8.90
2022-09-22T23:02:56.028Z,9.00
2022-09-22T23:05:25.022Z,9.00
2022-09-22T23:07:56.047Z,9.10
2022-09-22T23:10:26.826Z,9.10
2022-09-22T23:12:56.082Z,9.10
2022-09-22T23:15:26.491Z,9.10
2022-09-22T23:17:55.786Z,9.00
2022-09-22T23:20:26.122Z,9.00
2022-09-22T23:22:59.122Z,9.10
2022-09-22T23:25:27.911Z,9.10
2022-09-22T23:27:57.078Z,8.90
2022-09-22T23:30:25.845Z,8.80
2022-09-22T23:32:54.749Z,8.80
2022-09-22T23:35:24.145Z,8.60
2022-09-22T23:37:52.616Z,8.50
2022-09-22T23:40:23.168Z,8.50
2022-09-22T23:42:51.713Z,8.50
2022-09-22T23:45:20.808Z,8.40
2022-09-22T23:47:52.385Z,8.40
2022-09-22T23:50:20.722Z,8.40
2022-09-22T23:52:49.254Z,8.40
2022-09-22T23:55:19.209Z,8.30
2022-09-22T23:57:49.091Z,8.40
